Time;durP1;ratioP1;P1;durP2;ratioP2;P2;SDS_P1;SDS_P2;PMS_P1;PMS_P2;Temp;Humidity;BMP_temperature;BMP_pressure;BME280_temperature;BME280_humidity;BME280_pressure;Samples;Min_cycle;Max_cycle;Signal;HPM_P1;HPM_P2
2021/03/19 00:00:21;;;;;;;10.48;9.38;;;;;;;1.94;86.88;99699.30;1768434;81;21040;-71
2021/03/19 00:02:52;;;;;;;12.37;9.95;;;;;;;1.93;86.93;99699.74;1768412;81;21024;-69
2021/03/19 00:05:25;;;;;;;9.63;8.58;;;;;;;1.92;87.00;99695.49;1768605;81;21553;-66
2021/03/19 00:07:57;;;;;;;10.58;9.20;;;;;;;1.96;87.10;99700.11;1768660;81;21307;-72
2021/03/19 00:10:31;;;;;;;9.48;8.33;;;;;;;1.99;87.01;99700.03;1768497;81;20933;-66
2021/03/19 00:13:05;;;;;;;9.80;8.68;;;;;;;2.02;86.94;99696.06;1768572;81;21134;-69
2021/03/19 00:15:34;;;;;;;11.00;9.40;;;;;;;2.04;86.80;99687.87;1768527;81;20953;-67
2021/03/19 00:18:03;;;;;;;10.63;9.43;;;;;;;2.07;86.69;99691.65;1768599;81;21580;-66
2021/03/19 00:20:37;;;;;;;10.03;9.03;;;;;;;2.09;86.56;99691.61;1768662;81;21530;-66
2021/03/19 00:23:06;;;;;;;10.63;9.18;;;;;;;2.06;86.49;99682.27;1768533;81;20956;-68
2021/03/19 00:25:35;;;;;;;10.28;9.28;;;;;;;2.02;86.43;99685.80;1768553;81;20898;-72
2021/03/19 00:28:04;;;;;;;9.40;8.33;;;;;;;1.96;86.56;99685.98;1768549;81;20957;-67
2021/03/19 00:30:33;;;;;;;10.82;8.88;;;;;;;1.93;86.71;99693.77;1768666;81;20964;-66
2021/03/19 00:33:02;;;;;;;10.05;9.05;;;;;;;1.90;86.87;99689.99;1768625;81;21378;-65
2021/03/19 00:35:30;;;;;;;10.53;9.30;;;;;;;1.89;87.00;99690.44;1768472;81;20992;-72
2021/03/19 00:37:59;;;;;;;10.05;8.98;;;;;;;1.89;86.97;99687.02;1768547;81;21032;-71
2021/03/19 00:40:28;;;;;;;9.10;8.20;;;;;;;1.87;87.00;99690.07;1768589;81;20996;-72
2021/03/19 00:42:56;;;;;;;11.55;9.63;;;;;;;1.82;86.99;99685.05;1768584;81;20945;-69
2021/03/19 00:45:26;;;;;;;9.83;8.83;;;;;;;1.78;87.16;99679.59;1768611;81;22185;-66
2021/03/19 00:47:54;;;;;;;10.13;9.10;;;;;;;1.77;87.29;99680.48;1768420;81;20969;-69
2021/03/19 00:50:27;;;;;;;9.45;8.55;;;;;;;1.78;87.41;99684.73;1768522;81;21547;-64
2021/03/19 00:52:56;;;;;;;10.03;9.03;;;;;;;1.79;87.32;99676.59;1768345;81;20948;-65
2021/03/19 00:55:26;;;;;;;11.38;9.65;;;;;;;1.77;87.28;99675.78;1765981;81;21371;-65
2021/03/19 00:57:55;;;;;;;11.35;9.63;;;;;;;1.75;87.40;99673.26;1765308;81;21811;-66
2021/03/19 01:00:25;;;;;;;11.60;9.80;;;;;;;1.77;87.32;99676.62;1765166;81;20964;-65
2021/03/19 01:02:55;;;;;;;11.70;9.85;;;;;;;1.78;87.29;99680.04;1765299;81;20913;-71
2021/03/19 01:05:33;;;;;;;13.28;9.90;;;;;;;1.78;87.29;99677.47;1765193;81;20945;-65
2021/03/19 01:08:04;;;;;;;9.95;8.48;;;;;;;1.77;87.27;99673.22;1765274;81;21000;-65
2021/03/19 01:10:50;;;;;;;14.93;10.03;;;;;;;1.74;87.27;99680.55;1765198;81;21221;-66
2021/03/19 01:13:19;;;;;;;10.53;9.33;;;;;;;1.71;87.32;99672.09;1765321;81;21490;-65
2021/03/19 01:15:49;;;;;;;9.58;8.60;;;;;;;1.70;87.48;99668.68;1765218;81;20972;-65
2021/03/19 01:18:19;;;;;;;11.85;9.35;;;;;;;1.71;87.54;99669.52;1765266;81;20953;-67
2021/03/19 01:20:48;;;;;;;11.97;9.28;;;;;;;1.72;87.46;99673.34;1765300;81;21048;-68
2021/03/19 01:23:18;;;;;;;12.45;9.33;;;;;;;1.72;87.47;99669.48;1765325;81;21382;-65
2021/03/19 01:25:46;;;;;;;11.20;9.88;;;;;;;1.71;87.49;99673.37;1765323;81;21506;-65
2021/03/19 01:28:15;;;;;;;12.03;9.75;;;;;;;1.68;87.54;99671.28;1765253;81;20945;-68
2021/03/19 01:30:44;;;;;;;11.63;9.10;;;;;;;1.67;87.62;99672.61;1765201;81;21008;-70
2021/03/19 01:33:13;;;;;;;10.65;9.23;;;;;;;1.66;87.62;99674.77;1765398;81;21582;-69
2021/03/19 01:35:41;;;;;;;12.00;10.13;;;;;;;1.67;87.71;99674.73;1765229;81;21201;-66
2021/03/19 01:38:10;;;;;;;12.05;9.38;;;;;;;1.71;87.75;99675.94;1765209;81;21569;-70
2021/03/19 01:40:42;;;;;;;11.28;9.95;;;;;;;1.73;87.67;99671.61;1765308;81;21035;-69
2021/03/19 01:43:38;;;;;;;14.38;10.23;;;;;;;1.74;87.56;99669.45;1765196;81;21032;-71
2021/03/19 01:46:44;;;;;;;;;;;;;;;1.73;87.52;99675.02;1767837;81;20898;-70
2021/03/19 01:50:09;;;;;;;11.65;8.88;;;;;;;1.74;87.62;99677.98;1765238;81;21407;-67
2021/03/19 01:53:33;;;;;;;10.82;9.18;;;;;;;1.75;87.51;99673.70;1765265;81;21932;-67
2021/03/19 01:56:57;;;;;;;11.83;9.60;;;;;;;1.71;87.48;99678.51;1765221;81;20941;-66
2021/03/19 02:00:21;;;;;;;11.75;9.88;;;;;;;1.68;87.63;99675.58;1765187;81;20906;-73
2021/03/19 02:03:45;;;;;;;10.60;9.50;;;;;;;1.70;87.66;99677.66;1765227;81;20996;-73
2021/03/19 02:07:10;;;;;;;10.98;8.93;;;;;;;1.73;87.65;99684.45;1765743;81;21654;-71
2021/03/19 02:10:34;;;;;;;11.15;8.85;;;;;;;1.77;87.60;99687.34;1765388;81;20989;-68
2021/03/19 02:13:58;;;;;;;10.88;9.73;;;;;;;1.78;87.52;99690.30;1765203;81;20968;-72
2021/03/19 02:17:22;;;;;;;12.88;9.03;;;;;;;1.77;87.53;99682.20;1765191;81;21467;-72
2021/03/19 02:20:47;;;;;;;10.55;8.68;;;;;;;1.78;87.49;99685.17;1765233;81;20996;-66
2021/03/19 02:24:11;;;;;;;9.50;8.35;;;;;;;1.78;87.44;99698.00;1765226;81;21210;-73
2021/03/19 02:27:37;;;;;;;9.25;8.15;;;;;;;1.77;87.39;99691.19;1765111;81;21555;-73
2021/03/19 02:31:02;;;;;;;9.40;8.45;;;;;;;1.75;87.43;99698.08;1765220;81;20948;-73
2021/03/19 02:33:32;;;;;;;10.15;8.53;;;;;;;1.73;87.40;99694.27;1765176;81;21000;-73
2021/03/19 02:36:02;;;;;;;9.70;8.70;;;;;;;1.68;87.50;99701.24;1765340;81;21000;-66
2021/03/19 02:38:31;;;;;;;9.45;8.40;;;;;;;1.66;87.62;99704.28;1765137;81;21874;-73
2021/03/19 02:40:59;;;;;;;11.18;7.97;;;;;;;1.66;87.76;99707.70;1766995;81;21012;-70
2021/03/19 02:43:27;;;;;;;8.95;8.05;;;;;;;1.70;87.79;99708.91;1766449;81;20937;-66
2021/03/19 02:45:56;;;;;;;10.13;7.80;;;;;;;1.70;87.68;99712.75;1766255;81;20949;-64
2021/03/19 02:48:24;;;;;;;10.25;7.83;;;;;;;1.71;87.76;99715.72;1765417;81;20949;-65
2021/03/19 02:50:53;;;;;;;9.90;8.28;;;;;;;1.74;87.68;99711.80;1765193;81;21207;-65
2021/03/19 02:53:26;;;;;;;8.35;7.45;;;;;;;1.75;87.55;99716.89;1765247;81;21613;-66
2021/03/19 02:56:00;;;;;;;8.45;7.65;;;;;;;1.77;87.54;99714.28;1767458;81;20945;-65
2021/03/19 02:58:28;;;;;;;8.48;7.65;;;;;;;1.79;87.47;99714.66;1768454;81;21760;-66
2021/03/19 03:00:57;;;;;;;8.35;7.45;;;;;;;1.80;87.38;99715.50;1768439;81;20949;-65
2021/03/19 03:03:26;;;;;;;8.88;7.97;;;;;;;1.80;87.27;99720.63;1768455;81;21156;-65
2021/03/19 03:05:54;;;;;;;9.08;8.18;;;;;;;1.78;87.32;99723.23;1768382;81;20960;-68
2021/03/19 03:08:23;;;;;;;9.00;8.10;;;;;;;1.80;87.43;99725.77;1768501;81;21028;-65
2021/03/19 03:10:54;;;;;;;8.83;7.60;;;;;;;1.82;87.37;99727.85;1768401;81;21578;-65
2021/03/19 03:13:22;;;;;;;9.68;8.38;;;;;;;1.83;87.26;99724.41;1768422;81;20996;-65
2021/03/19 03:15:51;;;;;;;9.20;8.30;;;;;;;1.82;87.15;99726.56;1768522;81;22506;-66
2021/03/19 03:18:21;;;;;;;8.53;7.30;;;;;;;1.80;87.18;99727.89;1768434;81;21031;-66
2021/03/19 03:20:56;;;;;;;8.45;7.65;;;;;;;1.77;87.17;99720.27;1768445;81;21017;-66
2021/03/19 03:23:25;;;;;;;8.83;7.90;;;;;;;1.77;87.29;99725.84;1768449;81;20933;-66
2021/03/19 03:25:55;;;;;;;8.00;7.20;;;;;;;1.75;87.27;99721.18;1768419;81;20937;-67
2021/03/19 03:28:25;;;;;;;8.15;7.30;;;;;;;1.77;87.29;99725.40;1768441;81;21860;-66
2021/03/19 03:30:57;;;;;;;9.23;7.67;;;;;;;1.80;87.29;99727.05;1768395;81;20968;-65
2021/03/19 03:33:25;;;;;;;8.43;7.62;;;;;;;1.79;87.27;99730.05;1768459;81;20957;-72
2021/03/19 03:35:55;;;;;;;8.43;7.62;;;;;;;1.79;87.24;99731.34;1768411;81;20960;-68
2021/03/19 03:38:25;;;;;;;9.55;8.33;;;;;;;1.78;87.26;99737.35;1768408;81;20941;-66
2021/03/19 03:41:01;;;;;;;8.05;7.15;;;;;;;1.78;87.21;99736.07;1768590;81;21240;-67
2021/03/19 03:43:30;;;;;;;7.95;7.15;;;;;;;1.76;87.23;99739.11;1768633;81;21028;-65
2021/03/19 03:45:59;;;;;;;7.85;6.87;;;;;;;1.73;87.27;99735.78;1768739;81;21031;-66
2021/03/19 03:48:29;;;;;;;7.67;6.92;;;;;;;1.68;87.29;99735.89;1768464;81;21511;-65
2021/03/19 03:51:01;;;;;;;10.98;7.95;;;;;;;1.64;87.45;99735.56;1768728;81;20936;-64
2021/03/19 03:53:30;;;;;;;11.95;10.85;;;;;;;1.62;87.58;99733.03;1768597;81;21210;-65
2021/03/19 03:55:59;;;;;;;9.20;8.30;;;;;;;1.63;87.63;99744.14;1768479;81;20977;-65
2021/03/19 03:58:27;;;;;;;8.80;7.92;;;;;;;1.62;87.74;99739.88;1768632;81;20928;-68
2021/03/19 04:00:56;;;;;;;8.03;7.08;;;;;;;1.61;87.69;99743.33;1768552;81;20945;-66
2021/03/19 04:03:25;;;;;;;8.38;7.58;;;;;;;1.59;87.65;99745.97;1768564;81;20933;-65
2021/03/19 04:05:55;;;;;;;8.35;7.45;;;;;;;1.58;87.79;99752.42;1768691;81;22678;-66
2021/03/19 04:08:26;;;;;;;7.72;6.95;;;;;;;1.57;87.78;99743.88;1768474;81;20953;-70
2021/03/19 04:10:58;;;;;;;9.45;7.47;;;;;;;1.55;87.73;99752.48;1768617;81;20944;-70
2021/03/19 04:13:28;;;;;;;9.45;7.10;;;;;;;1.50;87.83;99750.03;1768998;81;20949;-73
2021/03/19 04:15:56;;;;;;;8.63;7.83;;;;;;;1.46;88.01;99747.13;1771904;81;20909;-73
2021/03/19 04:18:26;;;;;;;8.75;7.70;;;;;;;1.43;88.10;99749.77;1771874;81;21028;-67
2021/03/19 04:20:56;;;;;;;9.48;7.70;;;;;;;1.43;88.32;99747.64;1772395;81;20989;-63
2021/03/19 04:23:30;;;;;;;9.60;8.50;;;;;;;1.44;88.42;99753.17;1772440;81;20830;-67
2021/03/19 04:25:59;;;;;;;10.10;8.93;;;;;;;1.46;88.48;99753.98;1772281;81;21047;-67
2021/03/19 04:28:34;;;;;;;9.03;8.13;;;;;;;1.49;88.40;99752.62;1769893;81;20937;-65
2021/03/19 04:31:05;;;;;;;;;;;;;;;1.49;88.31;99757.77;1771229;81;21210;-64
2021/03/19 04:33:33;;;;;;;13.38;10.55;;;;;;;1.48;88.28;99756.92;1768556;81;20395;-65
2021/03/19 04:36:10;;;;;;;37.20;20.27;;;;;;;1.46;88.37;99753.55;1768557;81;20996;-65
2021/03/19 04:38:39;;;;;;;42.80;20.90;;;;;;;1.46;88.27;99756.11;1768558;81;21072;-67
2021/03/19 04:41:09;;;;;;;53.05;25.62;;;;;;;1.43;88.18;99760.03;1768651;81;21583;-73
2021/03/19 04:43:37;;;;;;;61.33;31.87;;;;;;;1.40;88.35;99750.27;1768577;81;21486;-65
2021/03/19 04:46:06;;;;;;;61.30;34.92;;;;;;;1.39;88.47;99761.41;1768491;81;21499;-73
2021/03/19 04:48:36;;;;;;;49.00;29.87;;;;;;;1.37;88.61;99762.73;1768532;81;20948;-71
2021/03/19 04:51:04;;;;;;;34.50;22.75;;;;;;;1.38;88.53;99753.31;1768493;81;21072;-69
2021/03/19 04:53:35;;;;;;;31.77;21.93;;;;;;;1.38;88.60;99764.86;1764763;81;21644;-72
2021/03/19 04:56:03;;;;;;;24.98;18.57;;;;;;;1.37;88.59;99763.17;1766937;81;21423;-72
2021/03/19 04:58:32;;;;;;;18.23;15.20;;;;;;;1.35;88.59;99758.08;1765211;81;21040;-65
2021/03/19 05:01:01;;;;;;;18.10;14.93;;;;;;;1.34;88.66;99764.92;1765273;81;20953;-64
2021/03/19 05:03:31;;;;;;;22.30;17.20;;;;;;;1.34;88.80;99764.92;1765237;81;21024;-67
2021/03/19 05:05:59;;;;;;;28.87;19.48;;;;;;;1.37;88.89;99767.02;1736145;81;21020;-66
2021/03/19 05:08:28;;;;;;;36.65;23.52;;;;;;;1.40;88.83;99765.23;1765327;81;21214;-65
2021/03/19 05:10:56;;;;;;;35.98;22.02;;;;;;;1.44;88.82;99769.85;1765230;81;21395;-65
2021/03/19 05:13:24;;;;;;;35.55;21.07;;;;;;;1.47;88.67;99764.21;1765263;81;20940;-71
2021/03/19 05:15:54;;;;;;;46.85;27.22;;;;;;;1.49;88.52;99769.30;1765238;81;21466;-71
2021/03/19 05:18:23;;;;;;;20.15;13.58;;;;;;;1.50;88.39;99768.42;1765256;81;21461;-71
2021/03/19 05:20:53;;;;;;;25.20;16.55;;;;;;;1.52;88.34;99772.65;1765453;81;21198;-71
2021/03/19 05:23:24;;;;;;;31.48;19.45;;;;;;;1.55;88.46;99777.70;1765200;81;21004;-65
2021/03/19 05:25:57;;;;;;;41.58;23.25;;;;;;;1.58;88.21;99776.36;1765265;81;21038;-65
2021/03/19 05:28:26;;;;;;;41.28;22.48;;;;;;;1.61;88.16;99780.10;1765227;81;21483;-65
2021/03/19 05:30:55;;;;;;;26.75;16.12;;;;;;;1.66;88.00;99787.69;1765241;81;20949;-65
2021/03/19 05:33:25;;;;;;;21.80;15.68;;;;;;;1.66;87.64;99783.84;1765224;81;21230;-64
2021/03/19 05:35:55;;;;;;;28.30;18.10;;;;;;;1.65;87.66;99788.57;1765233;81;20933;-64
2021/03/19 05:38:24;;;;;;;23.85;15.75;;;;;;;1.68;87.93;99793.64;1765247;81;20933;-65
2021/03/19 05:40:55;;;;;;;22.40;14.70;;;;;;;1.75;87.85;99791.33;1765199;81;21005;-66
2021/03/19 05:43:32;;;;;;;18.73;12.13;;;;;;;1.81;87.56;99801.45;1723438;81;20996;-65
2021/03/19 05:46:08;;;;;;;33.30;19.35;;;;;;;1.83;87.17;99798.41;1791034;80;21335;-65
2021/03/19 05:48:49;;;;;;;52.83;26.70;;;;;;;1.83;87.08;99799.70;1791780;80;20965;-65
2021/03/19 05:51:44;;;;;;;84.52;40.03;;;;;;;1.84;87.06;99803.11;1789089;80;21029;-70
2021/03/19 05:54:28;;;;;;;79.67;37.25;;;;;;;1.86;86.97;99811.17;1766976;80;20910;-67
2021/03/19 05:57:13;;;;;;;81.08;36.83;;;;;;;1.88;86.85;99812.42;1754872;79;21580;-71
2021/03/19 05:59:48;;;;;;;;;;;;;;;1.85;87.08;99808.64;1763878;79;21435;-73
2021/03/19 06:02:25;;;;;;;52.13;25.17;;;;;;;1.91;87.32;99811.06;1751142;79;20571;-71
2021/03/19 06:05:21;;;;;;;57.83;28.30;;;;;;;1.99;87.20;99811.28;1750329;80;21897;-72
2021/03/19 06:08:04;;;;;;;27.35;17.07;;;;;;;2.05;86.81;99813.27;1764646;79;21023;-66
2021/03/19 06:10:42;;;;;;;68.62;31.60;;;;;;;2.10;86.55;99812.72;1762935;79;21093;-70
2021/03/19 06:13:25;;;;;;;49.75;23.80;;;;;;;2.16;86.42;99813.41;1763431;81;21708;-70
2021/03/19 06:15:58;;;;;;;34.83;20.02;;;;;;;2.21;85.98;99814.14;1765712;79;21072;-70
2021/03/19 06:18:42;;;;;;;29.67;17.40;;;;;;;2.23;85.82;99816.67;1714008;79;21614;-71
2021/03/19 06:21:33;;;;;;;28.95;16.90;;;;;;;2.24;85.70;99819.20;1747371;80;21701;-69
2021/03/19 06:24:25;;;;;;;37.60;19.45;;;;;;;2.25;85.74;99815.75;1692319;80;21650;-73
2021/03/19 06:26:56;;;;;;;26.27;15.75;;;;;;;2.37;86.36;99823.59;1771103;79;21214;-69
2021/03/19 06:29:34;;;;;;;41.60;22.93;;;;;;;2.49;85.72;99818.55;1730003;80;21195;-71
2021/03/19 06:32:25;;;;;;;36.25;22.45;;;;;;;2.60;86.28;99826.37;1739136;81;21143;-71
2021/03/19 06:35:18;;;;;;;29.00;15.93;;;;;;;2.75;85.96;99832.84;1725191;82;20973;-68
2021/03/19 06:37:50;;;;;;;27.73;15.45;;;;;;;2.92;85.69;99832.34;1709889;82;21012;-71
2021/03/19 06:40:37;;;;;;;28.90;16.65;;;;;;;3.01;84.58;99834.66;1723030;82;21295;-68
2021/03/19 06:43:20;;;;;;;33.23;19.20;;;;;;;3.07;83.62;99837.51;1745447;80;21629;-68
2021/03/19 06:46:18;;;;;;;27.05;17.37;;;;;;;3.07;83.20;99844.78;1712584;81;21104;-71
2021/03/19 06:49:01;;;;;;;32.00;19.20;;;;;;;3.04;82.86;99846.16;1758889;79;20980;-77
2021/03/19 06:51:38;;;;;;;21.17;13.13;;;;;;;3.03;82.36;99852.19;1764266;79;21059;-72
2021/03/19 06:54:21;;;;;;;16.93;12.53;;;;;;;2.99;82.33;99850.58;1767197;79;21220;-68
2021/03/19 06:57:09;;;;;;;13.95;11.33;;;;;;;2.94;82.21;99851.15;1770555;79;21087;-70
2021/03/19 06:59:47;;;;;;;;;;;;;;;2.91;81.84;99848.66;1761112;79;21175;-70
2021/03/19 07:03:01;;;;;;;17.07;12.63;;;;;;;2.86;81.81;99847.95;1750117;80;20180;-69
2021/03/19 07:05:49;;;;;;;16.52;10.82;;;;;;;2.85;82.18;99846.25;1768634;79;21048;-70
2021/03/19 07:08:53;;;;;;;14.33;10.80;;;;;;;2.91;82.14;99850.80;1759692;79;21379;-69
2021/03/19 07:12:14;;;;;;;10.03;8.83;;;;;;;2.86;81.23;99845.38;1750604;79;21143;-69
2021/03/19 07:15:14;;;;;;;10.95;8.30;;;;;;;2.77;81.09;99845.66;1764994;79;21040;-69
2021/03/19 07:18:09;;;;;;;11.60;9.38;;;;;;;2.84;81.53;99845.86;1760802;79;21008;-71
2021/03/19 07:21:08;;;;;;;10.70;8.78;;;;;;;2.93;80.55;99851.59;1759679;79;21040;-70
2021/03/19 07:23:57;;;;;;;10.25;8.43;;;;;;;2.97;80.56;99857.50;1773869;79;20978;-70
2021/03/19 07:26:31;;;;;;;10.32;8.75;;;;;;;3.10;80.31;99861.42;1704108;79;21610;-72
2021/03/19 07:29:16;;;;;;;12.20;8.83;;;;;;;3.23;79.79;99852.88;1772092;79;21112;-72
2021/03/19 07:32:17;;;;;;;8.85;7.95;;;;;;;3.37;79.42;99858.92;1769639;79;21647;-83
2021/03/19 07:35:11;;;;;;;10.30;8.43;;;;;;;3.49;78.58;99861.98;1771864;79;21084;-77
2021/03/19 07:38:08;;;;;;;13.00;8.85;;;;;;;3.54;77.64;99863.13;1770530;79;21392;-73
2021/03/19 07:41:26;;;;;;;9.43;8.05;;;;;;;3.56;77.19;99855.77;1742100;80;22451;-78
2021/03/19 07:44:17;;;;;;;11.43;9.50;;;;;;;3.62;77.26;99852.97;1754390;80;21440;-71
2021/03/19 07:47:34;;;;;;;10.53;9.00;;;;;;;3.72;77.11;99853.54;1726295;80;21077;-73
2021/03/19 07:50:26;;;;;;;9.70;8.67;;;;;;;3.87;77.07;99861.24;1748889;80;20953;-71
2021/03/19 07:53:21;;;;;;;10.25;9.00;;;;;;;4.04;76.05;99861.53;1741544;80;21373;-71
2021/03/19 07:56:30;;;;;;;8.78;7.87;;;;;;;4.09;75.78;99863.95;1765400;79;27310;-71
2021/03/19 07:59:55;;;;;;;8.90;8.00;;;;;;;4.12;74.83;99863.41;1754999;80;21095;-70
2021/03/19 08:02:49;;;;;;;11.70;8.75;;;;;;;4.08;74.70;99868.27;1763149;79;21008;-69
2021/03/19 08:05:50;;;;;;;9.55;8.43;;;;;;;4.05;74.92;99865.79;1750888;79;21668;-72
2021/03/19 08:08:48;;;;;;;11.33;9.08;;;;;;;4.12;75.17;99867.72;1766773;79;21276;-74
2021/03/19 08:11:31;;;;;;;12.15;9.93;;;;;;;4.18;74.53;99875.27;1765831;79;21101;-70
2021/03/19 08:14:31;;;;;;;9.90;8.50;;;;;;;4.21;74.45;99874.72;1740567;81;20981;-68
2021/03/19 08:17:18;;;;;;;11.60;9.15;;;;;;;4.29;74.88;99874.02;1767360;79;21021;-68
2021/03/19 08:20:06;;;;;;;17.23;11.33;;;;;;;4.47;74.87;99870.42;1757325;79;21083;-68
2021/03/19 08:22:50;;;;;;;23.25;13.93;;;;;;;4.58;74.38;99874.77;1760430;79;21056;-73
2021/03/19 08:25:23;;;;;;;24.52;14.38;;;;;;;4.64;74.04;99871.98;1712077;79;21178;-69
2021/03/19 08:28:37;;;;;;;13.18;9.98;;;;;;;4.67;74.26;99868.86;1766376;79;28278;-67
2021/03/19 08:31:22;;;;;;;18.80;11.33;;;;;;;4.71;73.90;99873.46;1723959;81;21000;-68
2021/03/19 08:34:25;;;;;;;16.02;11.33;;;;;;;4.74;73.89;99871.23;1725465;79;21123;-70
2021/03/19 08:36:59;;;;;;;12.63;9.33;;;;;;;4.78;74.36;99872.80;1751166;80;21427;-69
2021/03/19 08:39:35;;;;;;;9.65;8.05;;;;;;;4.95;74.10;99870.45;1761642;79;21088;-69
2021/03/19 08:42:06;;;;;;;10.85;8.13;;;;;;;5.15;73.94;99865.88;1744193;79;27132;-66
2021/03/19 08:44:38;;;;;;;12.03;9.25;;;;;;;5.41;72.63;99870.05;1755815;79;21076;-69
2021/03/19 08:47:29;;;;;;;9.85;7.87;;;;;;;5.60;71.99;99858.95;1776046;80;20988;-68
2021/03/19 08:50:02;;;;;;;10.40;8.28;;;;;;;5.78;71.43;99875.48;1778056;79;21378;-72
2021/03/19 08:52:37;;;;;;;9.63;7.10;;;;;;;5.92;70.62;99871.95;1758056;80;21060;-71
2021/03/19 08:55:22;;;;;;;9.48;7.20;;;;;;;6.08;70.30;99868.28;1740592;80;21067;-69
2021/03/19 08:58:01;;;;;;;7.80;7.00;;;;;;;6.17;69.39;99866.63;1728562;82;21057;-69
2021/03/19 09:00:35;;;;;;;9.95;8.23;;;;;;;6.17;68.45;99869.66;1713312;80;21068;-79
2021/03/19 09:03:06;;;;;;;7.50;6.70;;;;;;;6.17;68.89;99865.78;1765481;79;22305;-74
2021/03/19 09:06:07;;;;;;;7.45;6.70;;;;;;;6.14;67.66;99868.49;1756991;79;21589;-74
2021/03/19 09:09:04;;;;;;;9.55;6.80;;;;;;;6.09;67.94;99870.42;1765146;79;21369;-69
2021/03/19 09:11:45;;;;;;;12.05;8.18;;;;;;;6.19;67.71;99867.86;1764026;79;21020;-70
2021/03/19 09:14:30;;;;;;;9.35;6.55;;;;;;;6.23;66.42;99872.00;1734863;79;21001;-69
2021/03/19 09:17:00;;;;;;;7.60;6.80;;;;;;;6.14;66.67;99873.21;1763615;79;21398;-68
2021/03/19 09:19:44;;;;;;;7.70;6.83;;;;;;;6.14;66.35;99871.08;1759566;79;21111;-70
2021/03/19 09:22:24;;;;;;;7.22;6.53;;;;;;;6.10;66.65;99873.39;1717518;80;21582;-73
2021/03/19 09:25:17;;;;;;;6.95;6.30;;;;;;;6.12;67.09;99869.84;1734822;80;21068;-72
2021/03/19 09:28:35;;;;;;;8.85;6.85;;;;;;;6.23;66.98;99879.30;1733133;80;21097;-73
2021/03/19 09:31:28;;;;;;;7.37;6.67;;;;;;;6.33;66.42;99879.78;1726734;81;21170;-71
2021/03/19 09:34:06;;;;;;;6.65;5.90;;;;;;;6.38;65.73;99883.47;1752641;80;21654;-78
2021/03/19 09:37:00;;;;;;;7.97;7.17;;;;;;;6.39;65.73;99880.83;1711235;80;21076;-72
2021/03/19 09:39:58;;;;;;;8.63;7.42;;;;;;;6.39;64.18;99878.23;1744627;80;21220;-70
2021/03/19 09:42:33;;;;;;;9.70;8.03;;;;;;;6.28;63.91;99886.87;1728502;80;21029;-69
2021/03/19 09:45:18;;;;;;;11.47;9.83;;;;;;;6.15;64.52;99880.52;1732134;80;22554;-68
2021/03/19 09:47:52;;;;;;;7.90;6.78;;;;;;;6.10;64.75;99881.15;1747170;80;21021;-69
2021/03/19 09:50:31;;;;;;;8.60;6.15;;;;;;;6.10;64.78;99886.31;1709560;82;21073;-70
2021/03/19 09:53:19;;;;;;;7.30;5.47;;;;;;;6.06;64.45;99888.19;1739418;80;21096;-71
2021/03/19 09:55:51;;;;;;;7.03;5.85;;;;;;;5.97;63.89;99884.25;1753559;80;21060;-70
2021/03/19 09:58:40;;;;;;;5.43;4.90;;;;;;;5.93;63.68;99883.13;1726587;81;21222;-71
2021/03/19 10:01:41;;;;;;;5.70;5.03;;;;;;;5.95;63.35;99877.00;1681147;83;21180;-69
2021/03/19 10:04:38;;;;;;;5.05;4.53;;;;;;;6.08;62.60;99877.78;1750609;80;21095;-68
2021/03/19 10:07:23;;;;;;;5.30;4.80;;;;;;;6.17;62.00;99876.97;1739591;81;21075;-67
2021/03/19 10:09:55;;;;;;;5.67;5.17;;;;;;;6.24;61.40;99880.99;1746847;80;21166;-69
2021/03/19 10:12:32;;;;;;;5.60;5.12;;;;;;;6.31;61.20;99882.88;1732744;80;21903;-68
2021/03/19 10:15:20;;;;;;;5.65;4.97;;;;;;;6.40;61.18;99881.18;1736196;80;21662;-69
2021/03/19 10:17:54;;;;;;;6.20;5.60;;;;;;;6.54;61.26;99882.75;1762670;80;21072;-70
2021/03/19 10:20:33;;;;;;;6.42;5.70;;;;;;;6.67;60.54;99881.78;1728761;81;21087;-70
2021/03/19 10:23:16;;;;;;;7.70;6.65;;;;;;;6.70;59.87;99882.95;1738249;81;22174;-68
2021/03/19 10:25:49;;;;;;;8.30;6.45;;;;;;;6.67;60.16;99880.49;1749695;80;21358;-66
2021/03/19 10:28:23;;;;;;;9.53;5.75;;;;;;;6.69;59.78;99880.81;1737162;80;21143;-73
2021/03/19 10:30:59;;;;;;;5.65;5.08;;;;;;;6.68;58.45;99881.72;1744520;80;21179;-69
2021/03/19 10:33:47;;;;;;;6.12;5.10;;;;;;;6.59;57.81;99882.11;1742961;80;21103;-67
2021/03/19 10:36:22;;;;;;;7.05;5.53;;;;;;;6.55;58.37;99883.14;1743846;80;21128;-69
2021/03/19 10:38:54;;;;;;;;;;;;;;;6.55;58.88;99881.84;1752494;80;21403;-73
2021/03/19 10:41:33;;;;;;;14.58;8.40;;;;;;;6.50;58.67;99886.37;1755139;80;20126;-72
2021/03/19 10:44:30;;;;;;;6.40;5.42;;;;;;;6.40;58.99;99881.66;1744207;80;21072;-68
2021/03/19 10:47:14;;;;;;;7.37;5.55;;;;;;;6.30;59.62;99880.74;1749181;80;21066;-70
2021/03/19 10:49:54;;;;;;;5.95;5.35;;;;;;;6.27;60.53;99883.91;1745586;80;21766;-68
2021/03/19 10:52:35;;;;;;;6.37;5.30;;;;;;;6.30;61.18;99881.20;1751330;80;21216;-68
2021/03/19 10:55:17;;;;;;;7.80;6.25;;;;;;;6.29;61.69;99878.22;1744373;80;21120;-68
2021/03/19 10:57:54;;;;;;;9.53;6.28;;;;;;;6.25;61.64;99880.54;1751741;80;21616;-69
2021/03/19 11:00:43;;;;;;;8.88;6.55;;;;;;;6.17;61.86;99877.42;1760437;79;20988;-74
2021/03/19 11:03:43;;;;;;;6.45;5.72;;;;;;;6.12;62.32;99878.89;1789766;79;21203;-70
2021/03/19 11:06:16;;;;;;;5.78;5.15;;;;;;;6.06;62.88;99873.13;1748529;79;22181;-68
2021/03/19 11:08:45;;;;;;;7.30;5.75;;;;;;;6.06;62.98;99874.42;1689693;83;21028;-67
2021/03/19 11:11:15;;;;;;;13.88;7.80;;;;;;;6.08;62.76;99869.58;1734586;80;20967;-68
2021/03/19 11:13:47;;;;;;;6.47;5.50;;;;;;;6.09;61.95;99871.71;1659442;84;21142;-68
2021/03/19 11:16:44;;;;;;;6.55;5.42;;;;;;;5.99;60.97;99878.57;1709187;80;21918;-67
2021/03/19 11:19:26;;;;;;;6.65;4.50;;;;;;;5.92;61.14;99870.66;1761958;79;22168;-68
2021/03/19 11:22:08;;;;;;;5.85;5.10;;;;;;;5.92;60.72;99871.95;1751606;80;21071;-67
2021/03/19 11:24:39;;;;;;;4.90;4.45;;;;;;;5.93;60.85;99879.26;1756278;80;21004;-68
2021/03/19 11:27:28;;;;;;;5.42;4.90;;;;;;;5.94;60.29;99880.48;1750332;80;21119;-68
2021/03/19 11:30:26;;;;;;;4.90;4.50;;;;;;;5.98;61.33;99879.47;1748688;80;21232;-68
2021/03/19 11:33:14;;;;;;;4.92;4.53;;;;;;;6.08;60.43;99879.08;1766878;79;22463;-68
2021/03/19 11:35:44;;;;;;;;;;;;;;;6.13;61.03;99881.03;1743116;80;21100;-68
2021/03/19 11:38:35;;;;;;;4.20;3.80;;;;;;;6.18;59.61;99882.98;1772336;80;20561;-69
2021/03/19 11:41:35;;;;;;;3.70;3.40;;;;;;;6.22;58.48;99883.25;1760738;79;20960;-68
2021/03/19 11:44:13;;;;;;;3.75;3.45;;;;;;;6.28;57.25;99886.87;1757292;79;20945;-67
2021/03/19 11:46:45;;;;;;;3.52;3.25;;;;;;;6.32;56.99;99882.81;1754717;80;21463;-71
2021/03/19 11:49:29;;;;;;;3.25;3.05;;;;;;;6.34;56.54;99887.92;1733971;80;21676;-68
2021/03/19 11:52:03;;;;;;;3.85;3.55;;;;;;;6.30;55.63;99887.20;1757927;80;22164;-68
2021/03/19 11:54:43;;;;;;;3.67;3.37;;;;;;;6.25;55.35;99880.09;1762135;80;21002;-69
2021/03/19 11:57:12;;;;;;;4.03;3.72;;;;;;;6.24;55.71;99886.61;1750128;79;21092;-68
2021/03/19 11:59:45;;;;;;;5.42;4.37;;;;;;;6.24;55.94;99887.91;1746496;81;22094;-69
2021/03/19 12:02:34;;;;;;;4.53;4.12;;;;;;;6.21;56.15;99884.99;1730260;81;20980;-68
2021/03/19 12:05:10;;;;;;;6.30;4.62;;;;;;;6.19;57.34;99891.97;1734701;81;21093;-68
2021/03/19 12:07:48;;;;;;;4.28;3.92;;;;;;;6.17;57.76;99892.48;1739475;81;21113;-70
2021/03/19 12:10:40;;;;;;;4.53;4.12;;;;;;;6.11;57.27;99895.75;1736245;81;21079;-69
2021/03/19 12:13:14;;;;;;;5.40;4.08;;;;;;;5.99;58.64;99891.48;1705031;81;21068;-67
2021/03/19 12:15:50;;;;;;;3.72;3.42;;;;;;;5.95;59.14;99890.38;1691565;82;21772;-72
2021/03/19 12:18:32;;;;;;;3.93;3.63;;;;;;;5.94;57.94;99887.41;1670324;84;20984;-70
2021/03/19 12:21:07;;;;;;;4.50;3.97;;;;;;;5.90;57.09;99892.30;1701433;82;21610;-71
2021/03/19 12:23:46;;;;;;;4.05;3.72;;;;;;;5.83;56.36;99888.23;1722598;81;20986;-72
2021/03/19 12:26:21;;;;;;;4.03;3.70;;;;;;;5.79;56.32;99887.51;1690548;83;21210;-69
2021/03/19 12:28:53;;;;;;;4.37;3.97;;;;;;;5.80;56.40;99889.19;1702334;82;21108;-71
2021/03/19 12:31:24;;;;;;;4.40;4.00;;;;;;;5.85;56.72;99889.86;1709963;82;21363;-71
2021/03/19 12:33:59;;;;;;;4.47;3.87;;;;;;;5.93;56.92;99891.73;1709748;81;21052;-71
2021/03/19 12:36:32;;;;;;;9.08;6.50;;;;;;;5.99;57.35;99884.19;1730936;81;21659;-72
2021/03/19 12:39:06;;;;;;;8.45;5.78;;;;;;;6.07;56.04;99893.74;1733027;81;21251;-71